sensor_id;sensor_type;location;lat;lon;timestamp;temperature;humidity
8008;DHT22;4049;49.468;11.200;2023-01-15T00:01:33;7.60;99.90
8008;DHT22;4049;49.468;11.200;2023-01-15T00:04:00;7.60;99.90
8008;DHT22;4049;49.468;11.200;2023-01-15T00:06:29;7.60;99.90
8008;DHT22;4049;49.468;11.200;2023-01-15T00:08:57;7.60;99.90
8008;DHT22;4049;49.468;11.200;2023-01-15T00:11:25;7.60;99.90
8008;DHT22;4049;49.468;11.200;2023-01-15T00:13:52;7.60;99.90
8008;DHT22;4049;49.468;11.200;2023-01-15T00:16:21;7.60;99.90
8008;DHT22;4049;49.468;11.200;2023-01-15T00:18:49;7.60;99.90
8008;DHT22;4049;49.468;11.200;2023-01-15T00:21:16;7.70;99.90
8008;DHT22;4049;49.468;11.200;2023-01-15T00:23:44;7.70;99.90
8008;DHT22;4049;49.468;11.200;2023-01-15T00:26:31;7.70;99.90
8008;DHT22;4049;49.468;11.200;2023-01-15T00:29:16;7.80;99.90
8008;DHT22;4049;49.468;11.200;2023-01-15T00:31:49;7.80;99.90
8008;DHT22;4049;49.468;11.200;2023-01-15T00:34:16;7.80;99.90
8008;DHT22;4049;49.468;11.200;2023-01-15T00:36:43;7.80;99.90
8008;DHT22;4049;49.468;11.200;2023-01-15T00:39:10;7.90;99.90
8008;DHT22;4049;49.468;11.200;2023-01-15T00:41:38;7.80;99.90
8008;DHT22;4049;49.468;11.200;2023-01-15T00:44:05;7.90;99.90
8008;DHT22;4049;49.468;11.200;2023-01-15T00:46:31;7.90;99.90
8008;DHT22;4049;49.468;11.200;2023-01-15T00:48:58;8.00;99.90
8008;DHT22;4049;49.468;11.200;2023-01-15T00:51:25;8.00;99.90
8008;DHT22;4049;49.468;11.200;2023-01-15T00:53:52;8.10;99.90
8008;DHT22;4049;49.468;11.200;2023-01-15T00:56:19;8.00;99.90
8008;DHT22;4049;49.468;11.200;2023-01-15T00:58:47;8.10;99.90
8008;DHT22;4049;49.468;11.200;2023-01-15T01:01:14;8.10;99.90
8008;DHT22;4049;49.468;11.200;2023-01-15T01:03:41;8.20;99.90
8008;DHT22;4049;49.468;11.200;2023-01-15T01:06:08;8.10;99.90
8008;DHT22;4049;49.468;11.200;2023-01-15T01:08:35;8.20;99.90
8008;DHT22;4049;49.468;11.200;2023-01-15T01:11:03;8.30;99.90
8008;DHT22;4049;49.468;11.200;2023-01-15T01:13:30;8.30;99.90
8008;DHT22;4049;49.468;11.200;2023-01-15T01:15:59;8.30;99.90
8008;DHT22;4049;49.468;11.200;2023-01-15T01:18:26;8.40;99.90
8008;DHT22;4049;49.468;11.200;2023-01-15T01:20:53;8.40;99.90
8008;DHT22;4049;49.468;11.200;2023-01-15T01:23:21;8.40;99.90
8008;DHT22;4049;49.468;11.200;2023-01-15T01:25:48;8.50;99.90
8008;DHT22;4049;49.468;11.200;2023-01-15T01:28:15;8.50;99.90
8008;DHT22;4049;49.468;11.200;2023-01-15T01:30:42;8.60;99.90
8008;DHT22;4049;49.468;11.200;2023-01-15T01:33:10;8.60;99.90
8008;DHT22;4049;49.468;11.200;2023-01-15T01:35:37;8.70;99.90
8008;DHT22;4049;49.468;11.200;2023-01-15T01:38:03;8.70;99.90
8008;DHT22;4049;49.468;11.200;2023-01-15T01:40:30;8.70;99.90
8008;DHT22;4049;49.468;11.200;2023-01-15T01:42:57;8.70;99.90
8008;DHT22;4049;49.468;11.200;2023-01-15T01:45:26;8.70;99.90
8008;DHT22;4049;49.468;11.200;2023-01-15T01:47:55;8.70;99.90
8008;DHT22;4049;49.468;11.200;2023-01-15T01:50:25;8.70;99.90
8008;DHT22;4049;49.468;11.200;2023-01-15T01:52:56;8.80;99.90
8008;DHT22;4049;49.468;11.200;2023-01-15T01:55:25;8.90;99.90
8008;DHT22;4049;49.468;11.200;2023-01-15T01:57:56;8.90;99.90
8008;DHT22;4049;49.468;11.200;2023-01-15T02:00:24;8.90;99.90
8008;DHT22;4049;49.468;11.200;2023-01-15T02:02:51;8.90;99.90
8008;DHT22;4049;49.468;11.200;2023-01-15T02:05:28;8.90;99.90
8008;DHT22;4049;49.468;11.200;2023-01-15T02:07:56;8.90;99.90
8008;DHT22;4049;49.468;11.200;2023-01-15T02:10:23;8.90;99.90
8008;DHT22;4049;49.468;11.200;2023-01-15T02:12:55;8.90;99.90
8008;DHT22;4049;49.468;11.200;2023-01-15T02:15:28;8.90;99.90
8008;DHT22;4049;49.468;11.200;2023-01-15T02:18:05;9.00;99.90
8008;DHT22;4049;49.468;11.200;2023-01-15T02:20:36;9.00;99.90
8008;DHT22;4049;49.468;11.200;2023-01-15T02:23:19;9.00;99.90
8008;DHT22;4049;49.468;11.200;2023-01-15T02:26:01;9.00;99.90
8008;DHT22;4049;49.468;11.200;2023-01-15T02:28:33;9.10;99.90
8008;DHT22;4049;49.468;11.200;2023-01-15T02:31:07;9.10;99.90
8008;DHT22;4049;49.468;11.200;2023-01-15T02:33:38;9.10;99.90
8008;DHT22;4049;49.468;11.200;2023-01-15T02:36:08;9.10;99.90
8008;DHT22;4049;49.468;11.200;2023-01-15T02:38:39;9.10;99.90
8008;DHT22;4049;49.468;11.200;2023-01-15T02:41:09;9.10;99.90
8008;DHT22;4049;49.468;11.200;2023-01-15T02:43:44;9.10;99.90
8008;DHT22;4049;49.468;11.200;2023-01-15T02:46:14;9.10;99.90
8008;DHT22;4049;49.468;11.200;2023-01-15T02:48:45;9.20;99.90
8008;DHT22;4049;49.468;11.200;2023-01-15T02:51:17;9.20;99.90
8008;DHT22;4049;49.468;11.200;2023-01-15T02:53:47;9.20;99.90
8008;DHT22;4049;49.468;11.200;2023-01-15T02:56:21;9.20;99.90
8008;DHT22;4049;49.468;11.200;2023-01-15T02:58:53;9.20;99.90
8008;DHT22;4049;49.468;11.200;2023-01-15T03:01:23;9.20;99.90
8008;DHT22;4049;49.468;11.200;2023-01-15T03:03:54;9.20;99.90
8008;DHT22;4049;49.468;11.200;2023-01-15T03:06:30;9.20;99.90
8008;DHT22;4049;49.468;11.200;2023-01-15T03:08:59;9.20;99.90
8008;DHT22;4049;49.468;11.200;2023-01-15T03:11:27;9.20;99.90
8008;DHT22;4049;49.468;11.200;2023-01-15T03:14:01;9.20;99.90
8008;DHT22;4049;49.468;11.200;2023-01-15T03:16:34;9.20;99.90
8008;DHT22;4049;49.468;11.200;2023-01-15T03:19:04;9.20;99.90
8008;DHT22;4049;49.468;11.200;2023-01-15T03:21:39;9.30;99.90
8008;DHT22;4049;49.468;11.200;2023-01-15T03:24:09;9.30;99.90
8008;DHT22;4049;49.468;11.200;2023-01-15T03:26:36;9.30;99.90
8008;DHT22;4049;49.468;11.200;2023-01-15T03:29:07;9.30;99.90
8008;DHT22;4049;49.468;11.200;2023-01-15T03:31:35;9.40;99.90
8008;DHT22;4049;49.468;11.200;2023-01-15T03:34:02;9.40;99.90
8008;DHT22;4049;49.468;11.200;2023-01-15T03:36:31;9.40;99.90
8008;DHT22;4049;49.468;11.200;2023-01-15T03:38:58;9.40;99.90
8008;DHT22;4049;49.468;11.200;2023-01-15T03:41:33;9.50;99.90
8008;DHT22;4049;49.468;11.200;2023-01-15T03:44:09;9.50;99.90
8008;DHT22;4049;49.468;11.200;2023-01-15T03:46:53;9.50;99.90
8008;DHT22;4049;49.468;11.200;2023-01-15T03:49:28;9.50;99.90
8008;DHT22;4049;49.468;11.200;2023-01-15T03:52:01;9.50;99.90
8008;DHT22;4049;49.468;11.200;2023-01-15T03:54:38;9.50;99.90
8008;DHT22;4049;49.468;11.200;2023-01-15T03:57:16;9.50;99.90
8008;DHT22;4049;49.468;11.200;2023-01-15T03:59:48;9.60;99.90
8008;DHT22;4049;49.468;11.200;2023-01-15T04:02:20;9.50;99.90
8008;DHT22;4049;49.468;11.200;2023-01-15T04:04:48;9.50;99.90
8008;DHT22;4049;49.468;11.200;2023-01-15T04:07:16;9.60;99.90
8008;DHT22;4049;49.468;11.200;2023-01-15T04:09:43;9.60;99.90
8008;DHT22;4049;49.468;11.200;2023-01-15T04:12:10;9.60;99.90
8008;DHT22;4049;49.468;11.200;2023-01-15T04:14:37;9.60;99.90
8008;DHT22;4049;49.468;11.200;2023-01-15T04:17:05;9.60;99.90
8008;DHT22;4049;49.468;11.200;2023-01-15T04:19:32;9.60;99.90
8008;DHT22;4049;49.468;11.200;2023-01-15T04:21:59;9.70;99.90
8008;DHT22;4049;49.468;11.200;2023-01-15T04:24:26;9.60;99.90
8008;DHT22;4049;49.468;11.200;2023-01-15T04:26:52;9.70;99.90
8008;DHT22;4049;49.468;11.200;2023-01-15T04:29:19;9.70;99.90
8008;DHT22;4049;49.468;11.200;2023-01-15T04:31:46;9.70;99.90
8008;DHT22;4049;49.468;11.200;2023-01-15T04:34:18;9.70;99.90
8008;DHT22;4049;49.468;11.200;2023-01-15T04:36:45;9.70;99.90
8008;DHT22;4049;49.468;11.200;2023-01-15T04:39:12;9.70;99.90
8008;DHT22;4049;49.468;11.200;2023-01-15T04:41:39;9.80;99.90
8008;DHT22;4049;49.468;11.200;2023-01-15T04:44:24;9.80;99.90
8008;DHT22;4049;49.468;11.200;2023-01-15T04:46:53;9.80;99.90
8008;DHT22;4049;49.468;11.200;2023-01-15T04:49:23;9.90;99.90
8008;DHT22;4049;49.468;11.200;2023-01-15T04:51:50;9.80;99.90
8008;DHT22;4049;49.468;11.200;2023-01-15T04:54:17;9.80;99.90
8008;DHT22;4049;49.468;11.200;2023-01-15T04:56:45;9.80;99.90
8008;DHT22;4049;49.468;11.200;2023-01-15T04:59:13;9.90;99.90
8008;DHT22;4049;49.468;11.200;2023-01-15T05:01:40;9.90;99.90
8008;DHT22;4049;49.468;11.200;2023-01-15T05:04:07;9.90;99.90
8008;DHT22;4049;49.468;11.200;2023-01-15T05:06:35;9.90;99.90
8008;DHT22;4049;49.468;11.200;2023-01-15T05:09:03;10.00;99.90
8008;DHT22;4049;49.468;11.200;2023-01-15T05:11:30;9.90;99.90
8008;DHT22;4049;49.468;11.200;2023-01-15T05:13:59;9.90;99.90
8008;DHT22;4049;49.468;11.200;2023-01-15T05:16:27;9.90;99.90
8008;DHT22;4049;49.468;11.200;2023-01-15T05:18:57;9.90;99.90
8008;DHT22;4049;49.468;11.200;2023-01-15T05:21:25;9.90;99.90
8008;DHT22;4049;49.468;11.200;2023-01-15T05:23:55;9.90;99.90
8008;DHT22;4049;49.468;11.200;2023-01-15T05:26:23;9.90;99.90
8008;DHT22;4049;49.468;11.200;2023-01-15T05:28:52;9.80;99.90
8008;DHT22;4049;49.468;11.200;2023-01-15T05:31:20;9.90;99.90
8008;DHT22;4049;49.468;11.200;2023-01-15T05:33:48;9.90;99.90
8008;DHT22;4049;49.468;11.200;2023-01-15T05:36:18;9.90;99.90
8008;DHT22;4049;49.468;11.200;2023-01-15T05:38:45;9.90;99.90
8008;DHT22;4049;49.468;11.200;2023-01-15T05:41:15;9.90;99.90
8008;DHT22;4049;49.468;11.200;2023-01-15T05:44:02;9.90;99.90
8008;DHT22;4049;49.468;11.200;2023-01-15T05:46:29;9.90;99.90
8008;DHT22;4049;49.468;11.200;2023-01-15T05:48:59;9.90;99.90
8008;DHT22;4049;49.468;11.200;2023-01-15T05:51:26;10.00;99.90
8008;DHT22;4049;49.468;11.200;2023-01-15T05:53:53;10.00;99.90
8008;DHT22;4049;49.468;11.200;2023-01-15T05:56:21;10.00;99.90
8008;DHT22;4049;49.468;11.200;2023-01-15T05:58:48;10.00;99.90
8008;DHT22;4049;49.468;11.200;2023-01-15T06:01:15;10.00;99.90
8008;DHT22;4049;49.468;11.200;2023-01-15T06:03:42;10.00;99.90
8008;DHT22;4049;49.468;11.200;2023-01-15T06:06:12;10.00;99.90
8008;DHT22;4049;49.468;11.200;2023-01-15T06:08:38;10.00;99.90
8008;DHT22;4049;49.468;11.200;2023-01-15T06:11:05;10.00;99.90
8008;DHT22;4049;49.468;11.200;2023-01-15T06:13:34;10.10;99.90
8008;DHT22;4049;49.468;11.200;2023-01-15T06:16:01;10.10;99.90
8008;DHT22;4049;49.468;11.200;2023-01-15T06:18:27;10.10;99.90
8008;DHT22;4049;49.468;11.200;2023-01-15T06:20:54;10.20;99.90
8008;DHT22;4049;49.468;11.200;2023-01-15T06:23:21;10.20;99.90
8008;DHT22;4049;49.468;11.200;2023-01-15T06:25:48;10.20;99.90
8008;DHT22;4049;49.468;11.200;2023-01-15T06:28:15;10.20;99.90
8008;DHT22;4049;49.468;11.200;2023-01-15T06:30:43;10.10;99.90
8008;DHT22;4049;49.468;11.200;2023-01-15T06:33:09;10.00;99.90
8008;DHT22;4049;49.468;11.200;2023-01-15T06:35:36;10.00;99.90
8008;DHT22;4049;49.468;11.200;2023-01-15T06:38:03;10.00;99.90
8008;DHT22;4049;49.468;11.200;2023-01-15T06:40:30;9.90;99.90
8008;DHT22;4049;49.468;11.200;2023-01-15T06:42:57;9.90;99.90
8008;DHT22;4049;49.468;11.200;2023-01-15T06:45:43;9.90;99.90
8008;DHT22;4049;49.468;11.200;2023-01-15T06:48:27;9.90;99.90
8008;DHT22;4049;49.468;11.200;2023-01-15T06:50:54;9.80;99.90
8008;DHT22;4049;49.468;11.200;2023-01-15T06:53:22;9.80;99.90
8008;DHT22;4049;49.468;11.200;2023-01-15T06:55:48;9.70;99.90
8008;DHT22;4049;49.468;11.200;2023-01-15T06:58:15;9.60;99.90
8008;DHT22;4049;49.468;11.200;2023-01-15T07:00:43;9.60;99.90
8008;DHT22;4049;49.468;11.200;2023-01-15T07:03:18;9.50;99.90
8008;DHT22;4049;49.468;11.200;2023-01-15T07:05:44;9.40;99.90
8008;DHT22;4049;49.468;11.200;2023-01-15T07:08:11;9.40;99.90
8008;DHT22;4049;49.468;11.200;2023-01-15T07:10:38;9.30;99.90
8008;DHT22;4049;49.468;11.200;2023-01-15T07:13:05;9.30;99.90
8008;DHT22;4049;49.468;11.200;2023-01-15T07:15:32;9.20;99.90
8008;DHT22;4049;49.468;11.200;2023-01-15T07:18:01;9.20;99.90
8008;DHT22;4049;49.468;11.200;2023-01-15T07:20:30;9.10;99.90
8008;DHT22;4049;49.468;11.200;2023-01-15T07:22:56;9.10;99.90
8008;DHT22;4049;49.468;11.200;2023-01-15T07:25:23;9.10;99.90
8008;DHT22;4049;49.468;11.200;2023-01-15T07:27:50;9.00;99.90
8008;DHT22;4049;49.468;11.200;2023-01-15T07:30:17;9.00;99.90
8008;DHT22;4049;49.468;11.200;2023-01-15T07:32:44;8.90;99.90
8008;DHT22;4049;49.468;11.200;2023-01-15T07:35:12;8.90;99.90
8008;DHT22;4049;49.468;11.200;2023-01-15T07:37:41;8.90;99.90
8008;DHT22;4049;49.468;11.200;2023-01-15T07:40:10;8.80;99.90
8008;DHT22;4049;49.468;11.200;2023-01-15T07:42:36;8.80;99.90
8008;DHT22;4049;49.468;11.200;2023-01-15T07:45:21;8.80;99.90
8008;DHT22;4049;49.468;11.200;2023-01-15T07:48:08;8.70;99.90
8008;DHT22;4049;49.468;11.200;2023-01-15T07:50:55;8.70;99.90
8008;DHT22;4049;49.468;11.200;2023-01-15T07:53:21;8.70;99.90
8008;DHT22;4049;49.468;11.200;2023-01-15T07:55:48;8.60;99.90
8008;DHT22;4049;49.468;11.200;2023-01-15T07:58:15;8.60;99.90
8008;DHT22;4049;49.468;11.200;2023-01-15T08:00:42;8.50;99.90
8008;DHT22;4049;49.468;11.200;2023-01-15T08:03:09;8.40;99.90
8008;DHT22;4049;49.468;11.200;2023-01-15T08:05:35;8.30;99.90
8008;DHT22;4049;49.468;11.200;2023-01-15T08:08:04;8.20;99.90
8008;DHT22;4049;49.468;11.200;2023-01-15T08:10:31;8.20;99.90
8008;DHT22;4049;49.468;11.200;2023-01-15T08:13:17;8.10;99.90
8008;DHT22;4049;49.468;11.200;2023-01-15T08:16:02;8.00;99.90
8008;DHT22;4049;49.468;11.200;2023-01-15T08:18:28;8.00;99.90
8008;DHT22;4049;49.468;11.200;2023-01-15T08:20:55;7.90;99.90
8008;DHT22;4049;49.468;11.200;2023-01-15T08:23:23;7.80;99.90
8008;DHT22;4049;49.468;11.200;2023-01-15T08:25:50;7.80;99.90
8008;DHT22;4049;49.468;11.200;2023-01-15T08:28:17;7.80;99.90
8008;DHT22;4049;49.468;11.200;2023-01-15T08:30:44;7.70;99.90
8008;DHT22;4049;49.468;11.200;2023-01-15T08:33:10;7.70;99.90
8008;DHT22;4049;49.468;11.200;2023-01-15T08:35:37;7.60;99.90
8008;DHT22;4049;49.468;11.200;2023-01-15T08:38:04;7.50;99.90
8008;DHT22;4049;49.468;11.200;2023-01-15T08:40:33;7.50;99.90
8008;DHT22;4049;49.468;11.200;2023-01-15T08:43:00;7.40;99.90
8008;DHT22;4049;49.468;11.200;2023-01-15T08:45:27;7.40;99.90
8008;DHT22;4049;49.468;11.200;2023-01-15T08:47:56;7.40;99.90
8008;DHT22;4049;49.468;11.200;2023-01-15T08:50:24;7.30;99.90
8008;DHT22;4049;49.468;11.200;2023-01-15T08:52:51;7.30;99.90
8008;DHT22;4049;49.468;11.200;2023-01-15T08:55:17;7.20;99.90
8008;DHT22;4049;49.468;11.200;2023-01-15T08:57:46;7.10;99.90
8008;DHT22;4049;49.468;11.200;2023-01-15T09:00:13;7.00;99.90
8008;DHT22;4049;49.468;11.200;2023-01-15T09:02:40;7.00;99.90
8008;DHT22;4049;49.468;11.200;2023-01-15T09:05:07;6.90;99.90
8008;DHT22;4049;49.468;11.200;2023-01-15T09:07:34;6.90;99.90
8008;DHT22;4049;49.468;11.200;2023-01-15T09:10:01;6.90;99.90
8008;DHT22;4049;49.468;11.200;2023-01-15T09:12:28;6.80;99.90
8008;DHT22;4049;49.468;11.200;2023-01-15T09:14:57;6.80;99.90
8008;DHT22;4049;49.468;11.200;2023-01-15T09:17:26;6.70;99.90
8008;DHT22;4049;49.468;11.200;2023-01-15T09:19:52;6.70;99.90
8008;DHT22;4049;49.468;11.200;2023-01-15T09:22:19;6.60;99.90
8008;DHT22;4049;49.468;11.200;2023-01-15T09:24:46;6.60;99.90
8008;DHT22;4049;49.468;11.200;2023-01-15T09:27:13;6.60;99.90
8008;DHT22;4049;49.468;11.200;2023-01-15T09:29:40;6.60;99.90
8008;DHT22;4049;49.468;11.200;2023-01-15T09:32:08;6.60;99.90
8008;DHT22;4049;49.468;11.200;2023-01-15T09:34:35;6.60;99.90
8008;DHT22;4049;49.468;11.200;2023-01-15T09:37:02;6.60;99.90
8008;DHT22;4049;49.468;11.200;2023-01-15T09:39:29;6.60;99.90
8008;DHT22;4049;49.468;11.200;2023-01-15T09:42:07;6.60;99.90
8008;DHT22;4049;49.468;11.200;2023-01-15T09:45:09;6.50;99.90
8008;DHT22;4049;49.468;11.200;2023-01-15T09:47:49;6.50;99.90
8008;DHT22;4049;49.468;11.200;2023-01-15T09:50:24;6.50;99.90
8008;DHT22;4049;49.468;11.200;2023-01-15T09:53:09;6.50;99.90
8008;DHT22;4049;49.468;11.200;2023-01-15T09:55:44;6.50;99.90
8008;DHT22;4049;49.468;11.200;2023-01-15T09:58:13;6.50;99.90
8008;DHT22;4049;49.468;11.200;2023-01-15T10:00:44;6.50;99.90
8008;DHT22;4049;49.468;11.200;2023-01-15T10:03:20;6.50;99.90
8008;DHT22;4049;49.468;11.200;2023-01-15T10:05:57;6.50;99.90
8008;DHT22;4049;49.468;11.200;2023-01-15T10:08:31;6.50;99.90
8008;DHT22;4049;49.468;11.200;2023-01-15T10:11:03;6.50;99.90
8008;DHT22;4049;49.468;11.200;2023-01-15T10:13:35;6.50;99.90
8008;DHT22;4049;49.468;11.200;2023-01-15T10:16:03;6.40;99.90
8008;DHT22;4049;49.468;11.200;2023-01-15T10:18:32;6.40;99.90
8008;DHT22;4049;49.468;11.200;2023-01-15T10:21:19;6.30;99.90
8008;DHT22;4049;49.468;11.200;2023-01-15T10:24:00;6.30;99.90
8008;DHT22;4049;49.468;11.200;2023-01-15T10:26:31;6.30;99.90
8008;DHT22;4049;49.468;11.200;2023-01-15T10:29:02;6.30;99.90
8008;DHT22;4049;49.468;11.200;2023-01-15T10:31:49;6.30;99.90
8008;DHT22;4049;49.468;11.200;2023-01-15T10:34:52;6.30;99.90
8008;DHT22;4049;49.468;11.200;2023-01-15T10:37:27;6.20;99.90
8008;DHT22;4049;49.468;11.200;2023-01-15T10:40:11;6.20;99.90
8008;DHT22;4049;49.468;11.200;2023-01-15T10:42:48;6.20;99.90
8008;DHT22;4049;49.468;11.200;2023-01-15T10:45:19;6.20;99.90
8008;DHT22;4049;49.468;11.200;2023-01-15T10:47:50;6.10;99.90
8008;DHT22;4049;49.468;11.200;2023-01-15T10:50:23;6.20;99.90
8008;DHT22;4049;49.468;11.200;2023-01-15T10:53:00;6.20;99.90
8008;DHT22;4049;49.468;11.200;2023-01-15T10:55:32;6.20;99.90
8008;DHT22;4049;49.468;11.200;2023-01-15T10:58:06;6.20;99.90
8008;DHT22;4049;49.468;11.200;2023-01-15T11:00:37;6.10;99.90
8008;DHT22;4049;49.468;11.200;2023-01-15T11:03:08;6.20;99.90
8008;DHT22;4049;49.468;11.200;2023-01-15T11:05:40;6.10;99.90
8008;DHT22;4049;49.468;11.200;2023-01-15T11:08:14;6.20;99.90
8008;DHT22;4049;49.468;11.200;2023-01-15T11:10:45;6.10;99.90
8008;DHT22;4049;49.468;11.200;2023-01-15T11:13:19;6.10;99.90
8008;DHT22;4049;49.468;11.200;2023-01-15T11:16:04;6.10;99.90
8008;DHT22;4049;49.468;11.200;2023-01-15T11:18:49;6.00;99.90
8008;DHT22;4049;49.468;11.200;2023-01-15T11:21:39;6.00;99.90
8008;DHT22;4049;49.468;11.200;2023-01-15T11:24:14;6.00;99.90
8008;DHT22;4049;49.468;11.200;2023-01-15T11:26:46;6.00;99.90
8008;DHT22;4049;49.468;11.200;2023-01-15T11:29:18;6.00;99.90
8008;DHT22;4049;49.468;11.200;2023-01-15T11:31:47;6.00;99.90
8008;DHT22;4049;49.468;11.200;2023-01-15T11:34:18;5.90;99.90
8008;DHT22;4049;49.468;11.200;2023-01-15T11:36:47;5.90;99.90
8008;DHT22;4049;49.468;11.200;2023-01-15T11:39:22;6.00;99.90
8008;DHT22;4049;49.468;11.200;2023-01-15T11:41:49;5.90;99.90
8008;DHT22;4049;49.468;11.200;2023-01-15T11:44:49;5.90;99.90
8008;DHT22;4049;49.468;11.200;2023-01-15T11:47:34;5.90;99.90
8008;DHT22;4049;49.468;11.200;2023-01-15T11:50:19;5.90;99.90
8008;DHT22;4049;49.468;11.200;2023-01-15T11:53:07;5.90;99.90
8008;DHT22;4049;49.468;11.200;2023-01-15T11:55:35;5.90;99.90
8008;DHT22;4049;49.468;11.200;2023-01-15T11:58:03;5.90;99.90
8008;DHT22;4049;49.468;11.200;2023-01-15T12:00:37;5.90;99.90
8008;DHT22;4049;49.468;11.200;2023-01-15T12:03:13;5.90;99.90
8008;DHT22;4049;49.468;11.200;2023-01-15T12:05:45;5.90;99.90
8008;DHT22;4049;49.468;11.200;2023-01-15T12:08:22;6.00;99.90
8008;DHT22;4049;49.468;11.200;2023-01-15T12:10:59;6.00;99.90
8008;DHT22;4049;49.468;11.200;2023-01-15T12:13:37;5.90;99.90
8008;DHT22;4049;49.468;11.200;2023-01-15T12:16:12;5.90;99.90
8008;DHT22;4049;49.468;11.200;2023-01-15T12:18:51;6.00;99.90
8008;DHT22;4049;49.468;11.200;2023-01-15T12:21:38;6.00;99.90
8008;DHT22;4049;49.468;11.200;2023-01-15T12:27:30;6.00;99.90
8008;DHT22;4049;49.468;11.200;2023-01-15T12:30:05;5.90;99.90
8008;DHT22;4049;49.468;11.200;2023-01-15T12:32:43;5.90;99.90
8008;DHT22;4049;49.468;11.200;2023-01-15T12:35:16;5.90;99.90
8008;DHT22;4049;49.468;11.200;2023-01-15T12:37:46;5.80;99.90
8008;DHT22;4049;49.468;11.200;2023-01-15T12:40:20;5.80;99.90
8008;DHT22;4049;49.468;11.200;2023-01-15T12:42:52;5.80;99.90
8008;DHT22;4049;49.468;11.200;2023-01-15T12:45:40;5.80;99.90
8008;DHT22;4049;49.468;11.200;2023-01-15T12:48:14;5.80;99.90
8008;DHT22;4049;49.468;11.200;2023-01-15T12:50:44;5.80;99.90
8008;DHT22;4049;49.468;11.200;2023-01-15T12:53:14;5.80;99.90
8008;DHT22;4049;49.468;11.200;2023-01-15T12:55:47;5.70;99.90
8008;DHT22;4049;49.468;11.200;2023-01-15T12:58:36;5.70;99.90
8008;DHT22;4049;49.468;11.200;2023-01-15T13:01:12;5.70;99.90
8008;DHT22;4049;49.468;11.200;2023-01-15T13:03:48;5.60;99.90
8008;DHT22;4049;49.468;11.200;2023-01-15T13:06:17;5.60;99.90
8008;DHT22;4049;49.468;11.200;2023-01-15T13:08:50;5.50;99.90
8008;DHT22;4049;49.468;11.200;2023-01-15T13:11:22;5.50;99.90
8008;DHT22;4049;49.468;11.200;2023-01-15T13:13:48;5.50;99.90
8008;DHT22;4049;49.468;11.200;2023-01-15T13:16:28;5.50;99.90
8008;DHT22;4049;49.468;11.200;2023-01-15T13:19:09;5.40;99.90
8008;DHT22;4049;49.468;11.200;2023-01-15T13:21:39;5.40;99.90
8008;DHT22;4049;49.468;11.200;2023-01-15T13:24:21;5.30;99.90
8008;DHT22;4049;49.468;11.200;2023-01-15T13:27:15;5.30;99.90
8008;DHT22;4049;49.468;11.200;2023-01-15T13:29:50;5.20;99.90
8008;DHT22;4049;49.468;11.200;2023-01-15T13:32:22;5.20;99.90
8008;DHT22;4049;49.468;11.200;2023-01-15T13:34:53;5.10;99.90
8008;DHT22;4049;49.468;11.200;2023-01-15T13:37:25;5.00;99.90
8008;DHT22;4049;49.468;11.200;2023-01-15T13:39:55;5.00;99.90
8008;DHT22;4049;49.468;11.200;2023-01-15T13:42:26;4.90;99.90
8008;DHT22;4049;49.468;11.200;2023-01-15T13:45:06;4.90;99.90
8008;DHT22;4049;49.468;11.200;2023-01-15T13:47:35;4.90;99.90
8008;DHT22;4049;49.468;11.200;2023-01-15T13:50:05;4.80;99.90
8008;DHT22;4049;49.468;11.200;2023-01-15T13:52:38;4.80;99.90
8008;DHT22;4049;49.468;11.200;2023-01-15T13:55:10;4.80;99.90
8008;DHT22;4049;49.468;11.200;2023-01-15T13:57:40;4.80;99.90
8008;DHT22;4049;49.468;11.200;2023-01-15T14:02:51;4.80;99.90
8008;DHT22;4049;49.468;11.200;2023-01-15T14:05:26;4.70;99.90
8008;DHT22;4049;49.468;11.200;2023-01-15T14:07:54;4.70;99.90
8008;DHT22;4049;49.468;11.200;2023-01-15T14:10:35;4.70;99.90
8008;DHT22;4049;49.468;11.200;2023-01-15T14:13:36;4.70;99.90
8008;DHT22;4049;49.468;11.200;2023-01-15T14:16:16;4.60;99.90
8008;DHT22;4049;49.468;11.200;2023-01-15T14:18:59;4.60;99.90
8008;DHT22;4049;49.468;11.200;2023-01-15T14:21:37;4.60;99.90
8008;DHT22;4049;49.468;11.200;2023-01-15T14:27:33;4.50;99.90
8008;DHT22;4049;49.468;11.200;2023-01-15T14:33:10;4.50;99.90
8008;DHT22;4049;49.468;11.200;2023-01-15T14:35:44;4.50;99.90
8008;DHT22;4049;49.468;11.200;2023-01-15T14:38:15;4.50;99.90
8008;DHT22;4049;49.468;11.200;2023-01-15T14:40:52;4.50;99.90
8008;DHT22;4049;49.468;11.200;2023-01-15T14:43:21;4.50;99.90
8008;DHT22;4049;49.468;11.200;2023-01-15T14:45:52;4.40;99.90
8008;DHT22;4049;49.468;11.200;2023-01-15T14:48:20;4.40;99.90
8008;DHT22;4049;49.468;11.200;2023-01-15T14:51:06;4.40;99.90
8008;DHT22;4049;49.468;11.200;2023-01-15T14:53:37;4.40;99.90
8008;DHT22;4049;49.468;11.200;2023-01-15T14:56:15;4.40;99.90
8008;DHT22;4049;49.468;11.200;2023-01-15T14:58:47;4.40;99.90
8008;DHT22;4049;49.468;11.200;2023-01-15T15:01:26;4.40;99.90
8008;DHT22;4049;49.468;11.200;2023-01-15T15:03:57;4.40;99.90
8008;DHT22;4049;49.468;11.200;2023-01-15T15:06:27;4.30;99.90
8008;DHT22;4049;49.468;11.200;2023-01-15T15:08:59;4.30;99.90
8008;DHT22;4049;49.468;11.200;2023-01-15T15:11:34;4.30;99.90
8008;DHT22;4049;49.468;11.200;2023-01-15T15:14:19;4.30;99.90
8008;DHT22;4049;49.468;11.200;2023-01-15T15:16:50;4.20;99.90
8008;DHT22;4049;49.468;11.200;2023-01-15T15:19:25;4.30;99.90
8008;DHT22;4049;49.468;11.200;2023-01-15T15:21:54;4.20;99.90
8008;DHT22;4049;49.468;11.200;2023-01-15T15:24:26;4.30;99.90
8008;DHT22;4049;49.468;11.200;2023-01-15T15:26:54;4.20;99.90
8008;DHT22;4049;49.468;11.200;2023-01-15T15:29:21;4.30;99.90
8008;DHT22;4049;49.468;11.200;2023-01-15T15:31:51;4.30;99.90
8008;DHT22;4049;49.468;11.200;2023-01-15T15:34:25;4.30;99.90
8008;DHT22;4049;49.468;11.200;2023-01-15T15:36:54;4.30;99.90
8008;DHT22;4049;49.468;11.200;2023-01-15T15:39:26;4.20;99.90
8008;DHT22;4049;49.468;11.200;2023-01-15T15:41:56;4.20;99.90
8008;DHT22;4049;49.468;11.200;2023-01-15T15:44:45;4.20;99.90
8008;DHT22;4049;49.468;11.200;2023-01-15T15:47:38;4.10;99.90
8008;DHT22;4049;49.468;11.200;2023-01-15T15:50:24;4.10;99.90
8008;DHT22;4049;49.468;11.200;2023-01-15T15:52:51;4.10;99.90
8008;DHT22;4049;49.468;11.200;2023-01-15T15:55:20;4.00;99.90
8008;DHT22;4049;49.468;11.200;2023-01-15T15:57:51;4.00;99.90
8008;DHT22;4049;49.468;11.200;2023-01-15T16:00:24;4.00;99.90
8008;DHT22;4049;49.468;11.200;2023-01-15T16:02:54;3.90;99.90
8008;DHT22;4049;49.468;11.200;2023-01-15T16:05:24;3.90;99.90
8008;DHT22;4049;49.468;11.200;2023-01-15T16:07:52;3.90;99.90
8008;DHT22;4049;49.468;11.200;2023-01-15T16:10:24;3.90;99.90
8008;DHT22;4049;49.468;11.200;2023-01-15T16:12:53;3.90;99.90
8008;DHT22;4049;49.468;11.200;2023-01-15T16:15:22;3.90;99.90
8008;DHT22;4049;49.468;11.200;2023-01-15T16:17:51;3.80;99.90
8008;DHT22;4049;49.468;11.200;2023-01-15T16:20:20;3.80;99.90
8008;DHT22;4049;49.468;11.200;2023-01-15T16:22:50;3.80;99.90
8008;DHT22;4049;49.468;11.200;2023-01-15T16:25:21;3.80;99.90
8008;DHT22;4049;49.468;11.200;2023-01-15T16:27:49;3.70;99.90
8008;DHT22;4049;49.468;11.200;2023-01-15T16:30:16;3.70;99.90
8008;DHT22;4049;49.468;11.200;2023-01-15T16:32:44;3.70;99.90
8008;DHT22;4049;49.468;11.200;2023-01-15T16:35:16;3.70;99.90
8008;DHT22;4049;49.468;11.200;2023-01-15T16:37:48;3.60;99.90
8008;DHT22;4049;49.468;11.200;2023-01-15T16:40:23;3.60;99.90